Panagia — SVA5679 — position and weather

sailwx.info

Track history (hours):
 
Tides and Currents Weather Stations Pressure Air Temp Water Temp Dewpoint Dewpoint Depression Visibility Wind Speed Wind Dir Waves Ship Positions

Panagia

Last reported at 2018-Jun-23 08:48 UTC. Time now 2018-Jun-25 04:32 UTC.
Position N 40°22' E 024°09'.

Length 24 m; draft 2 m.

Type: Ship. MMSI: 239785700.

Date/timePositionNaut miles runAvg speedWind from/ knotsBaromVisibWave heightAir tempDewpointWater temp
2018-Jun-23 08:48N 40°22' E 024°09'4 2.3
2018-Jun-23 06:59N 40°19' E 024°13'6 0.3
2018-Jun-22 08:57N 40°22' E 024°07'610.9
2018-Jun-22 08:27N 40°19' E 024°13'614.0
2018-Jun-22 08:01N 40°15' E 024°19'1 1.3
2018-Jun-22 07:31N 40°14' E 024°19'713.4
2018-Jun-22 07:00N 40°19' E 024°13'5 9.6
2018-Jun-22 06:30N 40°22' E 024°07'4 0.2
2018-Jun-21 09:06N 40°25' E 024°04'219.4
2018-Jun-21 09:00N 40°23' E 024°05'7 3.4
2018-Jun-21 06:57N 40°19' E 024°13'511.4
2018-Jun-21 06:30N 40°22' E 024°07'815.6
2018-Jun-21 06:00N 40°27' E 023°60'6 7.4
2018-Jun-21 05:10N 40°24' E 023°54'0 0.0
2018-Jun-21 05:01N 40°24' E 023°54'7 0.3
2018-Jun-20 09:20N 40°26' E 024°02'614.9
2018-Jun-20 08:55N 40°22' E 024°07'510.4
2018-Jun-20 08:26N 40°19' E 024°13'0 0.0
2018-Jun-20 08:00N 40°19' E 024°13'0 0.5
2018-Jun-20 07:29N 40°19' E 024°13'0 0.5
2018-Jun-20 06:58N 40°19' E 024°13'510.6
2018-Jun-20 06:30N 40°22' E 024°07'813.3
2018-Jun-20 05:52N 40°26' E 023°58'410.7
2018-Jun-20 05:28N 40°24' E 023°54'3 0.1
2018-Jun-19 09:31N 40°25' E 023°57'118.4
2018-Jun-19 09:28N 40°26' E 023°58'714.0
2018-Jun-19 08:59N 40°23' E 024°05'613.5
2018-Jun-19 08:31N 40°19' E 024°12'0 0.6
2018-Jun-19 08:00N 40°19' E 024°13'510.8
2018-Jun-19 07:30N 40°15' E 024°17'510.6
2018-Jun-19 07:00N 40°19' E 024°13'510.1
2018-Jun-19 06:30N 40°22' E 024°07'11 0.5
2018-Jun-18 09:48N 40°24' E 023°54'412.7
2018-Jun-18 09:28N 40°26' E 023°58'613.2
2018-Jun-18 09:00N 40°23' E 024°05'714.6
2018-Jun-18 08:30N 40°19' E 024°13'0 0.1
2018-Jun-18 08:00N 40°19' E 024°13'510.0
2018-Jun-18 07:30N 40°15' E 024°17'510.4
2018-Jun-18 07:00N 40°19' E 024°13'5 9.0
2018-Jun-18 06:28N 40°22' E 024°07'5 0.2
2018-Jun-17 08:42N 40°19' E 024°12'0 0.9
2018-Jun-17 08:20N 40°19' E 024°13'515.7
2018-Jun-17 07:59N 40°16' E 024°18'1 2.4
2018-Jun-17 07:30N 40°15' E 024°18'612.3
2018-Jun-17 07:01N 40°19' E 024°13'1 0.0
2018-Jun-16 08:38N 40°19' E 024°12'1 0.9
2018-Jun-16 08:03N 40°19' E 024°13'0 0.0
2018-Jun-16 08:00N 40°19' E 024°13'0 0.0
2018-Jun-16 07:21N 40°19' E 024°13'0 0.3
2018-Jun-16 07:00N 40°19' E 024°13'14 0.3
2018-Jun-14 09:43N 40°25' E 023°55'417.6
2018-Jun-14 09:30N 40°27' E 023°59'715.3
2018-Jun-14 09:00N 40°22' E 024°07'510.7
2018-Jun-14 08:30N 40°19' E 024°13'815.4
2018-Jun-14 08:00N 40°14' E 024°20'2 4.8
2018-Jun-14 07:31N 40°15' E 024°17'5 9.8
2018-Jun-14 06:58N 40°19' E 024°13'510.9
2018-Jun-14 06:30N 40°22' E 024°07'11 0.5
2018-Jun-13 09:39N 40°24' E 023°54'1 9.3
2018-Jun-13 09:31N 40°25' E 023°55'714.0
2018-Jun-13 09:01N 40°24' E 024°04'  
Track history (hours):
 
Tides and Currents Weather Stations Pressure Air Temp Water Temp Dewpoint Dewpoint Depression Visibility Wind Speed Wind Dir Waves Ship Positions

Panagia

Last reported at 2018-Jun-23 08:48 UTC. Time now 2018-Jun-25 04:32 UTC.
Position N 40°22' E 024°09'.

Length 24 m; draft 2 m.

Type: Ship. MMSI: 239785700.

Date/timePositionNaut miles runAvg speedWind from/ knotsBaromVisibWave heightAir tempDewpointWater temp
2018-Jun-23 08:48N 40°22' E 024°09'4 2.3
2018-Jun-23 06:59N 40°19' E 024°13'6 0.3
2018-Jun-22 08:57N 40°22' E 024°07'610.9
2018-Jun-22 08:27N 40°19' E 024°13'614.0
2018-Jun-22 08:01N 40°15' E 024°19'1 1.3
2018-Jun-22 07:31N 40°14' E 024°19'713.4
2018-Jun-22 07:00N 40°19' E 024°13'5 9.6
2018-Jun-22 06:30N 40°22' E 024°07'4 0.2
2018-Jun-21 09:06N 40°25' E 024°04'219.4
2018-Jun-21 09:00N 40°23' E 024°05'7 3.4
2018-Jun-21 06:57N 40°19' E 024°13'511.4
2018-Jun-21 06:30N 40°22' E 024°07'815.6
2018-Jun-21 06:00N 40°27' E 023°60'6 7.4
2018-Jun-21 05:10N 40°24' E 023°54'0 0.0
2018-Jun-21 05:01N 40°24' E 023°54'7 0.3
2018-Jun-20 09:20N 40°26' E 024°02'614.9
2018-Jun-20 08:55N 40°22' E 024°07'510.4
2018-Jun-20 08:26N 40°19' E 024°13'0 0.0
2018-Jun-20 08:00N 40°19' E 024°13'0 0.5
2018-Jun-20 07:29N 40°19' E 024°13'0 0.5
2018-Jun-20 06:58N 40°19' E 024°13'510.6
2018-Jun-20 06:30N 40°22' E 024°07'813.3
2018-Jun-20 05:52N 40°26' E 023°58'410.7
2018-Jun-20 05:28N 40°24' E 023°54'3 0.1
2018-Jun-19 09:31N 40°25' E 023°57'118.4
2018-Jun-19 09:28N 40°26' E 023°58'714.0
2018-Jun-19 08:59N 40°23' E 024°05'613.5
2018-Jun-19 08:31N 40°19' E 024°12'0 0.6
2018-Jun-19 08:00N 40°19' E 024°13'510.8
2018-Jun-19 07:30N 40°15' E 024°17'510.6
2018-Jun-19 07:00N 40°19' E 024°13'510.1
2018-Jun-19 06:30N 40°22' E 024°07'11 0.5
2018-Jun-18 09:48N 40°24' E 023°54'412.7
2018-Jun-18 09:28N 40°26' E 023°58'613.2
2018-Jun-18 09:00N 40°23' E 024°05'714.6
2018-Jun-18 08:30N 40°19' E 024°13'0 0.1
2018-Jun-18 08:00N 40°19' E 024°13'510.0
2018-Jun-18 07:30N 40°15' E 024°17'510.4
2018-Jun-18 07:00N 40°19' E 024°13'5 9.0
2018-Jun-18 06:28N 40°22' E 024°07'5 0.2
2018-Jun-17 08:42N 40°19' E 024°12'0 0.9
2018-Jun-17 08:20N 40°19' E 024°13'515.7
2018-Jun-17 07:59N 40°16' E 024°18'1 2.4
2018-Jun-17 07:30N 40°15' E 024°18'612.3
2018-Jun-17 07:01N 40°19' E 024°13'1 0.0
2018-Jun-16 08:38N 40°19' E 024°12'1 0.9
2018-Jun-16 08:03N 40°19' E 024°13'0 0.0
2018-Jun-16 08:00N 40°19' E 024°13'0 0.0
2018-Jun-16 07:21N 40°19' E 024°13'0 0.3
2018-Jun-16 07:00N 40°19' E 024°13'14 0.3
2018-Jun-14 09:43N 40°25' E 023°55'417.6
2018-Jun-14 09:30N 40°27' E 023°59'715.3
2018-Jun-14 09:00N 40°22' E 024°07'510.7
2018-Jun-14 08:30N 40°19' E 024°13'815.4
2018-Jun-14 08:00N 40°14' E 024°20'2 4.8
2018-Jun-14 07:31N 40°15' E 024°17'5 9.8
2018-Jun-14 06:58N 40°19' E 024°13'510.9
2018-Jun-14 06:30N 40°22' E 024°07'11 0.5
2018-Jun-13 09:39N 40°24' E 023°54'1 9.3
2018-Jun-13 09:31N 40°25' E 023°55'714.0
2018-Jun-13 09:01N 40°24' E 024°04'  

Dump ship's entire track history